Observations for Trim Market St
| Time | AQI | Temp °C | Hum % | Pres Pa | CO μg/m³ | H₂S μg/m³ | NO μg/m³ | NO₂ μg/m³ | O₃ μg/m³ | SO₂ μg/m³ | PM1 μg/m³ | PM2.5 μg/m³ | PM10 μg/m³ |
|---|---|---|---|---|---|---|---|---|---|---|---|---|---|
| Tuesday 25 August 2026 | |||||||||||||
| 23:15 | 2 | 16.7 | 84 | 2,147,483,647 | 0.29 | 0 | 1.47 | 16.58 | 31.95 | 0 | 6.41 | 6.6 | 10.26 |
| 23:11 | 2 | 16.8 | 84 | 2,147,483,647 | 0.29 | 0 | 1.25 | 17.73 | 32.75 | 0 | 4.28 | 5.67 | 9.17 |
| 23:05 | 2 | 16.8 | 84 | 2,147,483,647 | 0.36 | 0 | 0.98 | 14.87 | 42.24 | 0 | 5.7 | 7.08 | 11.9 |
| 23:00 | 2 | 16.8 | 84 | 2,147,483,647 | 0.3 | 0 | 1.16 | 20.31 | 35.46 | 0 | 6.41 | 7.55 | 11.9 |
| 22:59 | 2 | 16.8 | 84 | 2,147,483,647 | 0.3 | 0 | 1.14 | 15.2 | 35.15 | 0 | 6.41 | 7.09 | 11.36 |
| 22:58 | 2 | 16.8 | 84 | 2,147,483,647 | 0.31 | 0 | 1.17 | 21.08 | 31.36 | 0 | 6.41 | 8.02 | 12.45 |
| 22:57 | 2 | 16.8 | 84 | 2,147,483,647 | 0.35 | 0 | 1.02 | 19.06 | 33.06 | 0 | 7.84 | 9.88 | 15.72 |
| 22:56 | 2 | 16.8 | 84 | 2,147,483,647 | 0.31 | 0 | 1.17 | 18.39 | 33.4 | 0 | 7.13 | 8.95 | 14.09 |
| 22:55 | 2 | 16.8 | 84 | 2,147,483,647 | 0.31 | 0 | 1.31 | 22.42 | 34.38 | 0 | 6.41 | 7.55 | 12.45 |
| 22:54 | 2 | 16.8 | 84 | 2,147,483,647 | 0.31 | 0 | 1.22 | 21.76 | 32.16 | 0 | 6.41 | 7.55 | 11.9 |
| 22:52 | 2 | 16.8 | 84 | 2,147,483,647 | 0.32 | 0 | 1.52 | 19.71 | 33.21 | 0 | 7.84 | 8.49 | 14.09 |
| 22:51 | 2 | 16.8 | 84 | 2,147,483,647 | 0.32 | 0 | 1.34 | 21.97 | 32.9 | 0 | 7.84 | 9.89 | 14.64 |
| 22:50 | 2 | 16.8 | 84 | 2,147,483,647 | 0.33 | 0 | 1.35 | 25.29 | 29.14 | 0 | 6.41 | 8.49 | 12.45 |
| 22:47 | 2 | 16.8 | 83 | 2,147,483,647 | 0.32 | 0 | 1.25 | 20.82 | 30.75 | 0 | 4.99 | 8.03 | 13 |
| 22:45 | 2 | 16.8 | 83 | 2,147,483,647 | 0.32 | 0 | 1.29 | 19.39 | 29.19 | 0 | 7.13 | 7.56 | 11.36 |
| 22:43 | 2 | 16.9 | 83 | 2,147,483,647 | 0.33 | 0 | 1.29 | 27.11 | 35.4 | 0 | 8.55 | 9.43 | 14.65 |
| 22:35 | 2 | 16.9 | 83 | 2,147,483,647 | 0.35 | 0 | 1.58 | 24.66 | 26.43 | 0 | 7.84 | 8.5 | 14.65 |
| 22:32 | 2 | 16.9 | 83 | 2,147,483,647 | 0.35 | 0 | 1.58 | 20.91 | 30.25 | 0 | 9.26 | 9.91 | 14.66 |
| 22:31 | 2 | 16.9 | 83 | 2,147,483,647 | 0.35 | 0 | 1.58 | 27.56 | 32.15 | 0 | 7.84 | 9.44 | 14.11 |
| 22:30 | 2 | 16.9 | 83 | 2,147,483,647 | 0.36 | 0 | 1.46 | 26.09 | 30.05 | 0 | 9.98 | 12.24 | 17.4 |